x

Half Moon Bay - 24nm Ssw Of San Francisco, Ca (46012) Wave Buoy

3:50am - Sun 29th Mar 2015 All times are PDT. -7 hours from GMT.

  • Sig Wave height 9.5ft
  • Swell Direction
  • Peak Period 10s
  • Average Period 7s
  • Wind
    18mph, 22mph gusts
  • Sea Temp 55°f
  • Air Temp 55°f
  • Sea Pressure 1019.8mb
  • Half Moon Bay - 24nm Ssw Of San Francisco, Ca
  • Half Moon Bay - 24nm Ssw Of San Francisco, Ca

More Historic Weather Station data

Upgrade to MSW Pro to gain access to the past 30 days of data for over 8000 Wavebouys and Weather Stations around the globe.

Join Pro

Comparision Forecast

View Surf forecast
   
Sun 03/29 3:50am 9.5ft 10s 7s 18 22 mph 1019.8mb 55f 55f
2:50am 10ft 9s 7s 18 22 mph 1019.9mb 55f 55f
1:50am 11ft 9s 7s 18 25 mph 1019.7mb 55f 55f
12:50am 11ft 9s 7s 20 22 mph 1019.9mb 55f 55f
Sat 03/28 11:50pm 11ft 8s 7s 22 27 mph 1019.7mb 55f 55f
10:50pm 11.5ft 8s 7s 25 29 mph 1019.2mb 55f 55f
9:50pm 11.5ft 9s 7s 31 38 mph 1018.9mb 55f 56f
8:50pm 11.5ft 8s 7s 29 34 mph 1018.8mb 55f 56f
7:50pm 10.5ft 8s 7s 27 34 mph 1018.5mb 55f 56f
6:50pm 10ft 8s 7s 25 29 mph 1018.5mb 55f 56f
5:50pm 9.5ft 8s 7s 20 25 mph 1019.3mb 55f 56f
4:50pm 9.5ft 8s 7s 20 25 mph 1019.4mb 55f 56f
3:50pm 9.5ft 8s 7s 20 25 mph 1019.8mb 55f 56f
2:50pm 10ft 8s 7s 20 25 mph 1020.3mb 55f 56f
1:50pm 10.5ft 8s 7s 20 25 mph 1021mb 55f 56f
12:50pm 10ft 9s 7s 22 27 mph 1021.8mb 55f 56f
11:50am 10ft 8s 7s 25 31 mph 1021.9mb 55f 55f
10:50am 10ft 8s 7s 25 31 mph 1022.1mb 55f 55f
9:50am 10ft 9s 7s 25 31 mph 1021.8mb 56f 56f
8:50am 9ft 8s 7s 25 31 mph 1021.3mb 56f 55f
7:50am 9.5ft 8s 7s 25 31 mph 1020.8mb 56f 56f
6:50am 9.5ft 8s 6s 25 29 mph 1020.2mb 56f 56f
5:50am 9ft 13s 6s 20 25 mph 1020.3mb 56f 56f
4:50am 9ft 7s 6s 25 31 mph 1020.2mb 56f 56f
3:50am 8ft 14s 6s 25 31 mph 1020.2mb 56f 56f
2:50am 8ft 7s 6s 25 31 mph 1020.8mb 56f 56f
1:50am 8.5ft 11s 7s 25 31 mph 1021.3mb 57f 56f
12:50am 9ft 12s 7s 27 31 mph 1021.3mb 57f 57f
Fri 03/27 11:50pm 8.5ft 7s 6s 25 27 mph 1021.5mb 57f 56f
10:50pm 8.5ft 13s 7s 25 27 mph 1021.5mb 57f 56f
9:50pm 7ft 11s 6s 25 29 mph 1021.6mb 57f 56f
8:50pm 7ft 13s 7s 20 25 mph 1021.3mb 57f 56f
7:50pm 7.5ft 14s 7s 20 25 mph 1020.8mb 57f 56f
6:50pm 7.5ft 11s 7s 22 27 mph 1020.7mb 57f 55f
5:50pm 7.5ft 15s 7s 20 22 mph 1020.6mb 57f 56f
4:50pm 6.5ft 14s 7s 18 22 mph 1020.6mb 57f 56f
3:50pm 6ft 15s 7s 16 20 mph 1020.9mb 57f 56f
2:50pm 6.5ft 15s 7s 16 20 mph 1021.3mb 56f 55f
1:50pm 6ft 16s 7s 18 22 mph 1021.8mb 56f 55f
12:50pm 6ft 11s 7s 16 18 mph 1022.1mb 56f 55f
11:50am 5ft 11s 7s 13 18 mph 1022.2mb 56f 54f
10:50am 5.5ft 11s 8s 13 18 mph 1022mb 56f 54f
9:50am 5ft 11s 7s 13 18 mph 1021.2mb 56f 53f
8:50am 5ft 12s 7s 11 16 mph 1020.7mb 57f 53f
7:50am 5ft 11s 7s 11 13 mph 1020.3mb 58f 53f
6:50am 5.5ft 11s 8s 11 13 mph 1019.6mb 58f 53f
5:50am 6ft 11s 8s 11 13 mph 1019.4mb 58f 52f
4:50am 5.5ft 11s 8s 9 13 mph 1019.2mb 58f 52f
3:50am 5ft 11s 8s 9 13 mph 1019.1mb 58f 52f
2:50am 5ft 12s 8s 9 13 mph 1019.4mb 58f 52f
1:50am 5ft 11s 8s 7 11 mph 1019.6mb 58f 53f
12:50am 5ft 11s 7s 9 11 mph 1019.6mb 58f 53f
Thu 03/26 11:50pm 6ft 11s 8s 11 13 mph 1019.9mb 58f 53f
10:50pm 6ft 12s 7s 9 13 mph 1019.6mb 58f 53f
9:50pm 5.5ft 11s 7s 9 11 mph 1019.3mb 58f 53f
8:50pm 6ft 11s 7s 11 13 mph 1018.9mb 58f 53f
7:50pm 7ft 11s 7s 13 16 mph 1018.4mb 58f 53f
6:50pm 6ft 10s 7s 13 16 mph 1018.3mb 58f 54f
5:50pm 6ft 11s 7s 16 18 mph 1018.3mb 58f 54f
4:50pm 6.5ft 11s 8s 13 18 mph 1018.3mb 58f 54f
3:50pm 6ft 12s 7s 16 18 mph 1018.5mb 58f 55f
2:50pm 6ft 11s 7s 11 13 mph 1018.9mb 58f 56f
1:50pm 6ft 11s 7s 13 16 mph 1019.6mb 58f 55f
12:50pm 5.5ft 11s 6s 13 16 mph 1020.3mb 58f 55f
11:50am 6ft 11s 7s 11 13 mph 1020.7mb 58f 54f
10:50am 6ft 11s 7s 13 16 mph 1021.1mb 58f 53f
9:50am 6.5ft 11s 7s 13 16 mph 1020.9mb 58f 53f
8:50am 6.5ft 11s 7s 9 13 mph 1020.8mb 58f 53f
7:50am 6ft 11s 7s 11 13 mph 1020.6mb 58f 53f
6:50am 7ft 11s 7s 13 16 mph 1019.9mb 58f 53f
5:50am 7ft 12s 7s 16 18 mph 1019.6mb 58f 53f
4:50am 6.5ft 11s 7s 11 13 mph 1019.9mb 58f 53f
3:50am 6.5ft 11s 7s 11 16 mph 1020.1mb 58f 53f
2:50am 7ft 10s 6s 13 16 mph 1020.4mb 58f 54f
1:50am 7.5ft 7s 6s 16 20 mph 1020.6mb 58f 54f
12:50am 7ft 11s 6s 18 22 mph 1020.9mb 58f 55f
Wed 03/25 11:50pm 7ft 7s 6s 18 22 mph 1021.4mb 58f 56f
10:50pm 7ft 11s 6s 20 22 mph 1021.8mb 58f 56f
9:50pm 6ft 11s 6s 20 25 mph 1021.8mb 58f 56f
8:50pm 6ft 11s 6s 20 25 mph 1021.7mb 58f 57f
7:50pm 6.5ft 11s 6s 20 25 mph 1021.4mb 58f 56f
6:50pm 7ft 11s 6s 22 25 mph 1021.4mb 58f 57f
5:50pm 6ft 11s 6s 20 25 mph 1021.6mb 58f 57f
4:50pm 6.5ft 11s 6s 18 22 mph 1021.8mb 58f 57f
3:50pm 7ft 11s 6s 20 25 mph 1022.1mb 58f 57f
2:50pm 7ft 11s 7s 18 22 mph 1022.6mb 58f 57f
1:50pm 7.5ft 11s 7s 20 25 mph 1023.3mb 58f 56f
12:50pm 7.5ft 12s 7s 20 22 mph 1023.8mb 58f 57f
11:50am 7.5ft 13s 7s 18 20 mph 1024.2mb 58f 57f